sensor_id;sensor_type;location;lat;lon;timestamp;temperature;humidity
33460;DHT22;19795;53.160;6.612;2024-02-28T06:06:01;3.20;99.90
33460;DHT22;19795;53.160;6.612;2024-02-28T06:08:34;3.30;99.90
33460;DHT22;19795;53.160;6.612;2024-02-28T06:11:00;2.80;99.90
33460;DHT22;19795;53.160;6.612;2024-02-28T06:13:29;3.30;99.90
33460;DHT22;19795;53.160;6.612;2024-02-28T06:15:58;3.40;99.90
33460;DHT22;19795;53.160;6.612;2024-02-28T06:18:26;3.50;99.90
33460;DHT22;19795;53.160;6.612;2024-02-28T06:20:55;3.50;99.90
33460;DHT22;19795;53.160;6.612;2024-02-28T06:23:25;3.20;99.90
33460;DHT22;19795;53.160;6.612;2024-02-28T06:25:51;3.70;99.90
33460;DHT22;19795;53.160;6.612;2024-02-28T06:28:19;3.50;99.90
33460;DHT22;19795;53.160;6.612;2024-02-28T06:30:45;3.60;99.90
33460;DHT22;19795;53.160;6.612;2024-02-28T06:33:14;3.30;99.90
33460;DHT22;19795;53.160;6.612;2024-02-28T06:35:40;3.50;99.90
33460;DHT22;19795;53.160;6.612;2024-02-28T06:38:06;3.60;99.90
33460;DHT22;19795;53.160;6.612;2024-02-28T06:40:33;3.70;99.90
33460;DHT22;19795;53.160;6.612;2024-02-28T06:42:59;3.60;99.90
33460;DHT22;19795;53.160;6.612;2024-02-28T06:45:25;3.30;99.90
33460;DHT22;19795;53.160;6.612;2024-02-28T06:47:51;3.40;99.90
33460;DHT22;19795;53.160;6.612;2024-02-28T06:50:17;3.40;99.90
33460;DHT22;19795;53.160;6.612;2024-02-28T06:52:42;3.50;99.90
33460;DHT22;19795;53.160;6.612;2024-02-28T06:55:08;4.50;99.90
33460;DHT22;19795;53.160;6.612;2024-02-28T06:57:40;3.50;99.90
33460;DHT22;19795;53.160;6.612;2024-02-28T07:00:07;3.90;99.90
33460;DHT22;19795;53.160;6.612;2024-02-28T07:02:44;3.50;99.90
33460;DHT22;19795;53.160;6.612;2024-02-28T07:05:10;3.70;99.90
33460;DHT22;19795;53.160;6.612;2024-02-28T07:07:36;3.60;99.90
33460;DHT22;19795;53.160;6.612;2024-02-28T07:10:05;3.60;99.90
33460;DHT22;19795;53.160;6.612;2024-02-28T07:12:31;3.60;99.90
33460;DHT22;19795;53.160;6.612;2024-02-28T07:14:57;3.60;99.90
33460;DHT22;19795;53.160;6.612;2024-02-28T07:17:23;3.90;99.90
33460;DHT22;19795;53.160;6.612;2024-02-28T07:19:49;3.70;99.90
33460;DHT22;19795;53.160;6.612;2024-02-28T07:22:17;3.80;99.90
33460;DHT22;19795;53.160;6.612;2024-02-28T07:24:43;3.70;99.90
33460;DHT22;19795;53.160;6.612;2024-02-28T07:27:09;3.80;99.90
33460;DHT22;19795;53.160;6.612;2024-02-28T07:29:36;4.00;99.90
33460;DHT22;19795;53.160;6.612;2024-02-28T07:32:01;4.10;99.90
33460;DHT22;19795;53.160;6.612;2024-02-28T07:34:28;3.90;99.90
33460;DHT22;19795;53.160;6.612;2024-02-28T07:36:54;4.20;99.90
33460;DHT22;19795;53.160;6.612;2024-02-28T07:39:22;4.40;99.90
33460;DHT22;19795;53.160;6.612;2024-02-28T07:41:49;3.90;99.90
33460;DHT22;19795;53.160;6.612;2024-02-28T07:44:19;4.10;99.90
33460;DHT22;19795;53.160;6.612;2024-02-28T07:46:52;4.20;99.90
33460;DHT22;19795;53.160;6.612;2024-02-28T07:49:18;4.20;99.90
33460;DHT22;19795;53.160;6.612;2024-02-28T07:51:44;4.70;99.90
33460;DHT22;19795;53.160;6.612;2024-02-28T07:54:09;4.30;99.90
33460;DHT22;19795;53.160;6.612;2024-02-28T07:56:35;4.40;99.90
33460;DHT22;19795;53.160;6.612;2024-02-28T07:59:01;4.50;99.90
33460;DHT22;19795;53.160;6.612;2024-02-28T08:01:26;4.50;99.90
33460;DHT22;19795;53.160;6.612;2024-02-28T08:03:52;4.60;99.90
33460;DHT22;19795;53.160;6.612;2024-02-28T08:06:19;4.50;99.90
33460;DHT22;19795;53.160;6.612;2024-02-28T08:08:45;4.60;99.90
33460;DHT22;19795;53.160;6.612;2024-02-28T08:11:12;4.60;99.90
33460;DHT22;19795;53.160;6.612;2024-02-28T08:13:38;4.70;99.90
33460;DHT22;19795;53.160;6.612;2024-02-28T08:16:03;5.00;99.90
33460;DHT22;19795;53.160;6.612;2024-02-28T08:18:29;4.80;99.90
33460;DHT22;19795;53.160;6.612;2024-02-28T08:20:55;5.00;99.90
33460;DHT22;19795;53.160;6.612;2024-02-28T08:23:23;5.00;99.90
33460;DHT22;19795;53.160;6.612;2024-02-28T08:25:49;5.00;99.90
33460;DHT22;19795;53.160;6.612;2024-02-28T08:28:14;5.10;99.90
33460;DHT22;19795;53.160;6.612;2024-02-28T08:30:40;5.20;99.90
33460;DHT22;19795;53.160;6.612;2024-02-28T08:33:06;5.40;99.90
33460;DHT22;19795;53.160;6.612;2024-02-28T08:35:34;5.50;99.90
33460;DHT22;19795;53.160;6.612;2024-02-28T08:37:59;5.40;99.90
33460;DHT22;19795;53.160;6.612;2024-02-28T08:40:25;5.30;99.90
33460;DHT22;19795;53.160;6.612;2024-02-28T08:42:51;5.50;99.90
33460;DHT22;19795;53.160;6.612;2024-02-28T08:45:18;5.50;99.90
33460;DHT22;19795;53.160;6.612;2024-02-28T08:47:44;5.40;99.90
33460;DHT22;19795;53.160;6.612;2024-02-28T08:50:10;5.40;99.90
33460;DHT22;19795;53.160;6.612;2024-02-28T08:52:36;5.50;99.90
33460;DHT22;19795;53.160;6.612;2024-02-28T08:55:02;5.60;99.90
33460;DHT22;19795;53.160;6.612;2024-02-28T08:57:28;5.60;99.90
33460;DHT22;19795;53.160;6.612;2024-02-28T08:59:55;5.60;99.90
33460;DHT22;19795;53.160;6.612;2024-02-28T09:02:21;5.70;99.90
33460;DHT22;19795;53.160;6.612;2024-02-28T09:04:47;5.90;99.90
33460;DHT22;19795;53.160;6.612;2024-02-28T09:07:18;6.00;99.90
33460;DHT22;19795;53.160;6.612;2024-02-28T09:09:45;6.20;99.90
33460;DHT22;19795;53.160;6.612;2024-02-28T09:12:11;6.40;99.90
33460;DHT22;19795;53.160;6.612;2024-02-28T09:14:37;6.40;99.90
33460;DHT22;19795;53.160;6.612;2024-02-28T09:17:02;6.50;99.90
33460;DHT22;19795;53.160;6.612;2024-02-28T09:19:29;6.60;99.90
33460;DHT22;19795;53.160;6.612;2024-02-28T09:21:54;6.80;99.90
33460;DHT22;19795;53.160;6.612;2024-02-28T09:24:20;6.80;99.90
33460;DHT22;19795;53.160;6.612;2024-02-28T09:26:48;6.90;99.90
33460;DHT22;19795;53.160;6.612;2024-02-28T09:29:14;6.90;99.90
33460;DHT22;19795;53.160;6.612;2024-02-28T09:31:40;7.00;99.90
33460;DHT22;19795;53.160;6.612;2024-02-28T09:34:05;6.90;99.90
33460;DHT22;19795;53.160;6.612;2024-02-28T09:36:43;7.00;99.90
33460;DHT22;19795;53.160;6.612;2024-02-28T09:39:11;7.00;99.90
33460;DHT22;19795;53.160;6.612;2024-02-28T09:41:38;7.10;99.90
33460;DHT22;19795;53.160;6.612;2024-02-28T09:44:06;7.10;99.90
33460;DHT22;19795;53.160;6.612;2024-02-28T09:46:33;7.20;99.90
33460;DHT22;19795;53.160;6.612;2024-02-28T09:49:04;7.30;99.90
33460;DHT22;19795;53.160;6.612;2024-02-28T09:51:33;7.30;99.90
33460;DHT22;19795;53.160;6.612;2024-02-28T09:54:03;7.50;99.90
33460;DHT22;19795;53.160;6.612;2024-02-28T09:56:29;7.60;99.90
33460;DHT22;19795;53.160;6.612;2024-02-28T09:58:55;7.70;99.90
33460;DHT22;19795;53.160;6.612;2024-02-28T10:01:25;7.60;99.90
33460;DHT22;19795;53.160;6.612;2024-02-28T10:03:52;7.50;99.90
33460;DHT22;19795;53.160;6.612;2024-02-28T10:06:19;7.60;99.90
33460;DHT22;19795;53.160;6.612;2024-02-28T10:08:45;7.30;99.90
33460;DHT22;19795;53.160;6.612;2024-02-28T10:11:23;7.30;99.90
33460;DHT22;19795;53.160;6.612;2024-02-28T10:13:50;7.40;99.90
33460;DHT22;19795;53.160;6.612;2024-02-28T10:16:15;7.50;99.90
33460;DHT22;19795;53.160;6.612;2024-02-28T10:18:45;7.40;99.90
33460;DHT22;19795;53.160;6.612;2024-02-28T10:21:11;7.40;99.90
33460;DHT22;19795;53.160;6.612;2024-02-28T10:23:44;7.30;99.90
33460;DHT22;19795;53.160;6.612;2024-02-28T10:26:13;7.20;99.90
33460;DHT22;19795;53.160;6.612;2024-02-28T10:28:40;7.20;99.90
33460;DHT22;19795;53.160;6.612;2024-02-28T10:31:06;7.10;99.90
33460;DHT22;19795;53.160;6.612;2024-02-28T10:33:33;7.10;99.90
33460;DHT22;19795;53.160;6.612;2024-02-28T10:35:59;7.00;99.90
33460;DHT22;19795;53.160;6.612;2024-02-28T10:38:26;6.90;99.90
33460;DHT22;19795;53.160;6.612;2024-02-28T10:40:53;7.00;99.90
33460;DHT22;19795;53.160;6.612;2024-02-28T10:43:19;7.00;99.90
33460;DHT22;19795;53.160;6.612;2024-02-28T10:45:46;7.10;99.90
33460;DHT22;19795;53.160;6.612;2024-02-28T10:48:16;7.00;99.90
33460;DHT22;19795;53.160;6.612;2024-02-28T10:50:43;7.00;99.90
33460;DHT22;19795;53.160;6.612;2024-02-28T10:53:14;7.10;99.90
33460;DHT22;19795;53.160;6.612;2024-02-28T10:55:41;7.20;99.90
33460;DHT22;19795;53.160;6.612;2024-02-28T10:58:10;7.40;99.90
33460;DHT22;19795;53.160;6.612;2024-02-28T11:00:40;7.50;99.90
33460;DHT22;19795;53.160;6.612;2024-02-28T11:03:15;7.50;99.90
33460;DHT22;19795;53.160;6.612;2024-02-28T11:05:42;7.60;99.90
33460;DHT22;19795;53.160;6.612;2024-02-28T11:08:21;7.60;99.90
33460;DHT22;19795;53.160;6.612;2024-02-28T11:10:58;7.60;99.90
33460;DHT22;19795;53.160;6.612;2024-02-28T11:13:25;7.70;99.90
33460;DHT22;19795;53.160;6.612;2024-02-28T11:15:51;7.80;99.90
33460;DHT22;19795;53.160;6.612;2024-02-28T11:18:17;7.80;99.90
33460;DHT22;19795;53.160;6.612;2024-02-28T11:20:43;7.80;99.90
33460;DHT22;19795;53.160;6.612;2024-02-28T11:23:10;8.10;99.90
33460;DHT22;19795;53.160;6.612;2024-02-28T11:25:35;8.20;99.90
33460;DHT22;19795;53.160;6.612;2024-02-28T11:28:01;8.30;99.90
33460;DHT22;19795;53.160;6.612;2024-02-28T11:30:27;8.40;99.90
33460;DHT22;19795;53.160;6.612;2024-02-28T11:32:53;8.60;99.90
33460;DHT22;19795;53.160;6.612;2024-02-28T11:35:26;8.80;99.90
33460;DHT22;19795;53.160;6.612;2024-02-28T11:37:54;8.90;99.90
33460;DHT22;19795;53.160;6.612;2024-02-28T11:40:26;8.80;99.90
33460;DHT22;19795;53.160;6.612;2024-02-28T11:42:55;8.80;99.90
33460;DHT22;19795;53.160;6.612;2024-02-28T11:45:21;9.20;99.90
33460;DHT22;19795;53.160;6.612;2024-02-28T11:47:47;9.40;99.90
33460;DHT22;19795;53.160;6.612;2024-02-28T11:50:13;9.50;99.90
33460;DHT22;19795;53.160;6.612;2024-02-28T11:52:43;9.30;99.90
33460;DHT22;19795;53.160;6.612;2024-02-28T11:55:09;9.20;99.90
33460;DHT22;19795;53.160;6.612;2024-02-28T11:57:35;9.10;99.90
33460;DHT22;19795;53.160;6.612;2024-02-28T12:00:08;9.00;99.90
33460;DHT22;19795;53.160;6.612;2024-02-28T12:02:34;8.90;99.90
33460;DHT22;19795;53.160;6.612;2024-02-28T12:05:04;9.00;99.90
33460;DHT22;19795;53.160;6.612;2024-02-28T12:07:31;8.80;99.90
33460;DHT22;19795;53.160;6.612;2024-02-28T12:09:57;8.80;99.90
33460;DHT22;19795;53.160;6.612;2024-02-28T12:12:23;8.70;99.90
33460;DHT22;19795;53.160;6.612;2024-02-28T12:14:48;8.80;99.90
33460;DHT22;19795;53.160;6.612;2024-02-28T12:17:17;8.90;99.90
33460;DHT22;19795;53.160;6.612;2024-02-28T12:19:43;9.00;99.90
33460;DHT22;19795;53.160;6.612;2024-02-28T12:22:09;9.20;99.90
33460;DHT22;19795;53.160;6.612;2024-02-28T12:24:35;9.20;99.90
33460;DHT22;19795;53.160;6.612;2024-02-28T12:27:01;9.20;99.90
33460;DHT22;19795;53.160;6.612;2024-02-28T12:29:27;9.20;99.90
33460;DHT22;19795;53.160;6.612;2024-02-28T12:31:53;9.10;99.90
33460;DHT22;19795;53.160;6.612;2024-02-28T12:34:18;8.90;99.90
33460;DHT22;19795;53.160;6.612;2024-02-28T12:36:44;8.90;99.90
33460;DHT22;19795;53.160;6.612;2024-02-28T12:39:10;8.90;99.90
33460;DHT22;19795;53.160;6.612;2024-02-28T12:41:38;8.80;99.90
33460;DHT22;19795;53.160;6.612;2024-02-28T12:44:07;8.70;99.90
33460;DHT22;19795;53.160;6.612;2024-02-28T12:46:34;8.60;99.90
33460;DHT22;19795;53.160;6.612;2024-02-28T12:48:59;8.60;99.90
33460;DHT22;19795;53.160;6.612;2024-02-28T12:51:43;8.70;99.90
33460;DHT22;19795;53.160;6.612;2024-02-28T12:54:09;8.70;99.90
33460;DHT22;19795;53.160;6.612;2024-02-28T12:56:39;8.80;99.90
33460;DHT22;19795;53.160;6.612;2024-02-28T12:59:05;8.80;99.90
33460;DHT22;19795;53.160;6.612;2024-02-28T13:01:32;8.50;99.90
33460;DHT22;19795;53.160;6.612;2024-02-28T13:04:01;8.50;99.90
33460;DHT22;19795;53.160;6.612;2024-02-28T13:06:27;8.40;99.90
33460;DHT22;19795;53.160;6.612;2024-02-28T13:08:53;8.30;99.90
33460;DHT22;19795;53.160;6.612;2024-02-28T13:11:20;8.40;99.90
33460;DHT22;19795;53.160;6.612;2024-02-28T13:13:51;8.30;99.90
33460;DHT22;19795;53.160;6.612;2024-02-28T13:16:17;8.40;99.90
33460;DHT22;19795;53.160;6.612;2024-02-28T13:18:43;8.40;99.90
33460;DHT22;19795;53.160;6.612;2024-02-28T13:21:10;8.40;99.90
33460;DHT22;19795;53.160;6.612;2024-02-28T13:23:35;8.50;99.90
33460;DHT22;19795;53.160;6.612;2024-02-28T13:26:03;8.70;99.90
33460;DHT22;19795;53.160;6.612;2024-02-28T13:28:29;8.70;99.90
33460;DHT22;19795;53.160;6.612;2024-02-28T13:31:02;8.80;99.90
33460;DHT22;19795;53.160;6.612;2024-02-28T13:33:28;8.80;99.90
33460;DHT22;19795;53.160;6.612;2024-02-28T13:35:54;9.00;99.90
33460;DHT22;19795;53.160;6.612;2024-02-28T13:38:20;9.10;99.90
33460;DHT22;19795;53.160;6.612;2024-02-28T13:40:47;8.90;99.90
33460;DHT22;19795;53.160;6.612;2024-02-28T13:43:13;8.90;99.90
33460;DHT22;19795;53.160;6.612;2024-02-28T13:45:39;8.80;99.90
33460;DHT22;19795;53.160;6.612;2024-02-28T13:48:24;8.50;99.90
33460;DHT22;19795;53.160;6.612;2024-02-28T13:50:50;8.40;99.90
33460;DHT22;19795;53.160;6.612;2024-02-28T13:53:17;8.30;99.90
33460;DHT22;19795;53.160;6.612;2024-02-28T13:55:43;8.20;99.90
33460;DHT22;19795;53.160;6.612;2024-02-28T13:58:11;8.20;99.90
33460;DHT22;19795;53.160;6.612;2024-02-28T14:00:37;8.20;99.90
33460;DHT22;19795;53.160;6.612;2024-02-28T14:03:04;8.20;99.90
33460;DHT22;19795;53.160;6.612;2024-02-28T14:05:31;8.40;99.90
33460;DHT22;19795;53.160;6.612;2024-02-28T14:07:57;8.50;99.90
33460;DHT22;19795;53.160;6.612;2024-02-28T14:10:24;8.60;99.90
33460;DHT22;19795;53.160;6.612;2024-02-28T14:12:50;8.70;99.90
33460;DHT22;19795;53.160;6.612;2024-02-28T14:15:20;8.70;99.90
33460;DHT22;19795;53.160;6.612;2024-02-28T14:17:46;8.80;99.90
33460;DHT22;19795;53.160;6.612;2024-02-28T14:20:12;8.70;99.90
33460;DHT22;19795;53.160;6.612;2024-02-28T14:22:39;8.60;99.90
33460;DHT22;19795;53.160;6.612;2024-02-28T14:25:11;8.60;99.90
33460;DHT22;19795;53.160;6.612;2024-02-28T14:27:38;8.50;99.90
33460;DHT22;19795;53.160;6.612;2024-02-28T14:30:06;8.50;99.90
33460;DHT22;19795;53.160;6.612;2024-02-28T14:32:37;8.50;99.90
33460;DHT22;19795;53.160;6.612;2024-02-28T14:35:05;8.60;99.90
33460;DHT22;19795;53.160;6.612;2024-02-28T14:37:32;8.60;99.90
33460;DHT22;19795;53.160;6.612;2024-02-28T14:39:59;8.70;99.90
33460;DHT22;19795;53.160;6.612;2024-02-28T14:42:26;8.60;99.90
33460;DHT22;19795;53.160;6.612;2024-02-28T14:44:52;8.60;99.90
33460;DHT22;19795;53.160;6.612;2024-02-28T14:47:19;8.60;99.90
33460;DHT22;19795;53.160;6.612;2024-02-28T14:49:45;8.50;99.90
33460;DHT22;19795;53.160;6.612;2024-02-28T14:52:11;8.50;99.90
33460;DHT22;19795;53.160;6.612;2024-02-28T14:54:37;8.30;99.90
33460;DHT22;19795;53.160;6.612;2024-02-28T14:57:04;8.30;99.90
33460;DHT22;19795;53.160;6.612;2024-02-28T14:59:30;8.30;99.90
33460;DHT22;19795;53.160;6.612;2024-02-28T15:01:55;8.20;99.90
33460;DHT22;19795;53.160;6.612;2024-02-28T15:04:21;8.20;99.90
33460;DHT22;19795;53.160;6.612;2024-02-28T15:06:48;8.30;99.90
33460;DHT22;19795;53.160;6.612;2024-02-28T15:09:14;8.20;99.90
33460;DHT22;19795;53.160;6.612;2024-02-28T15:11:40;8.40;99.90
33460;DHT22;19795;53.160;6.612;2024-02-28T15:14:06;8.40;99.90
33460;DHT22;19795;53.160;6.612;2024-02-28T15:16:32;8.50;99.90
33460;DHT22;19795;53.160;6.612;2024-02-28T15:18:58;8.50;99.90
33460;DHT22;19795;53.160;6.612;2024-02-28T15:21:24;8.40;99.90
33460;DHT22;19795;53.160;6.612;2024-02-28T15:23:50;8.40;99.90
33460;DHT22;19795;53.160;6.612;2024-02-28T15:26:16;8.60;99.90
33460;DHT22;19795;53.160;6.612;2024-02-28T15:28:42;8.60;99.90
33460;DHT22;19795;53.160;6.612;2024-02-28T15:31:07;8.60;99.90
33460;DHT22;19795;53.160;6.612;2024-02-28T15:33:33;8.60;99.90
33460;DHT22;19795;53.160;6.612;2024-02-28T15:35:58;8.60;99.90
33460;DHT22;19795;53.160;6.612;2024-02-28T15:38:25;8.60;99.90
33460;DHT22;19795;53.160;6.612;2024-02-28T15:40:51;8.50;99.90
33460;DHT22;19795;53.160;6.612;2024-02-28T15:43:17;8.50;99.90
33460;DHT22;19795;53.160;6.612;2024-02-28T15:45:43;8.40;99.90
33460;DHT22;19795;53.160;6.612;2024-02-28T15:48:08;8.50;99.90
33460;DHT22;19795;53.160;6.612;2024-02-28T15:50:34;8.40;99.90
33460;DHT22;19795;53.160;6.612;2024-02-28T15:53:02;8.40;99.90
33460;DHT22;19795;53.160;6.612;2024-02-28T15:55:29;8.30;99.90
33460;DHT22;19795;53.160;6.612;2024-02-28T15:57:55;8.30;99.90
33460;DHT22;19795;53.160;6.612;2024-02-28T16:00:21;8.20;99.90
33460;DHT22;19795;53.160;6.612;2024-02-28T16:02:47;8.20;99.90
33460;DHT22;19795;53.160;6.612;2024-02-28T16:05:13;8.20;99.90
33460;DHT22;19795;53.160;6.612;2024-02-28T16:07:40;8.10;99.90
33460;DHT22;19795;53.160;6.612;2024-02-28T16:10:07;8.00;99.90
33460;DHT22;19795;53.160;6.612;2024-02-28T16:12:33;8.00;99.90
33460;DHT22;19795;53.160;6.612;2024-02-28T16:14:59;8.00;99.90
33460;DHT22;19795;53.160;6.612;2024-02-28T16:17:25;8.00;99.90
33460;DHT22;19795;53.160;6.612;2024-02-28T16:19:51;7.80;99.90
33460;DHT22;19795;53.160;6.612;2024-02-28T16:22:17;7.80;99.90
33460;DHT22;19795;53.160;6.612;2024-02-28T16:24:43;7.70;99.90
33460;DHT22;19795;53.160;6.612;2024-02-28T16:27:09;7.70;99.90
33460;DHT22;19795;53.160;6.612;2024-02-28T16:29:35;7.70;99.90
33460;DHT22;19795;53.160;6.612;2024-02-28T16:32:00;7.60;99.90
33460;DHT22;19795;53.160;6.612;2024-02-28T16:34:27;7.50;99.90
33460;DHT22;19795;53.160;6.612;2024-02-28T16:36:53;7.50;99.90
33460;DHT22;19795;53.160;6.612;2024-02-28T16:39:18;7.50;99.90
33460;DHT22;19795;53.160;6.612;2024-02-28T16:41:45;7.40;99.90
33460;DHT22;19795;53.160;6.612;2024-02-28T16:44:10;7.40;99.90
33460;DHT22;19795;53.160;6.612;2024-02-28T16:46:36;7.50;99.90
33460;DHT22;19795;53.160;6.612;2024-02-28T16:49:02;7.30;99.90
33460;DHT22;19795;53.160;6.612;2024-02-28T16:51:27;7.50;99.90
33460;DHT22;19795;53.160;6.612;2024-02-28T16:53:53;7.20;99.90
33460;DHT22;19795;53.160;6.612;2024-02-28T16:56:19;7.20;99.90
33460;DHT22;19795;53.160;6.612;2024-02-28T16:58:44;7.20;99.90
33460;DHT22;19795;53.160;6.612;2024-02-28T17:01:13;7.10;99.90
33460;DHT22;19795;53.160;6.612;2024-02-28T17:03:39;7.10;99.90
33460;DHT22;19795;53.160;6.612;2024-02-28T17:06:05;7.20;99.90
33460;DHT22;19795;53.160;6.612;2024-02-28T17:08:31;7.10;99.90
33460;DHT22;19795;53.160;6.612;2024-02-28T17:11:00;7.10;99.90
33460;DHT22;19795;53.160;6.612;2024-02-28T17:13:26;7.10;99.90
33460;DHT22;19795;53.160;6.612;2024-02-28T17:15:52;7.30;99.90
33460;DHT22;19795;53.160;6.612;2024-02-28T17:18:21;7.20;99.90
33460;DHT22;19795;53.160;6.612;2024-02-28T17:20:49;7.20;99.90
33460;DHT22;19795;53.160;6.612;2024-02-28T17:23:15;7.20;99.90
33460;DHT22;19795;53.160;6.612;2024-02-28T17:25:41;7.20;99.90
33460;DHT22;19795;53.160;6.612;2024-02-28T17:28:06;7.20;99.90
33460;DHT22;19795;53.160;6.612;2024-02-28T17:30:32;7.20;99.90
33460;DHT22;19795;53.160;6.612;2024-02-28T17:32:58;7.20;99.90
33460;DHT22;19795;53.160;6.612;2024-02-28T17:35:23;7.20;99.90
33460;DHT22;19795;53.160;6.612;2024-02-28T17:37:49;7.20;99.90
33460;DHT22;19795;53.160;6.612;2024-02-28T17:40:15;7.20;99.90
33460;DHT22;19795;53.160;6.612;2024-02-28T17:42:42;7.20;99.90
33460;DHT22;19795;53.160;6.612;2024-02-28T17:45:08;7.40;99.90
33460;DHT22;19795;53.160;6.612;2024-02-28T17:47:37;7.20;99.90
33460;DHT22;19795;53.160;6.612;2024-02-28T17:50:04;7.10;99.90
33460;DHT22;19795;53.160;6.612;2024-02-28T17:52:31;7.20;99.90
33460;DHT22;19795;53.160;6.612;2024-02-28T17:54:56;7.10;99.90
33460;DHT22;19795;53.160;6.612;2024-02-28T17:57:22;7.40;99.90
33460;DHT22;19795;53.160;6.612;2024-02-28T17:59:47;7.20;99.90
33460;DHT22;19795;53.160;6.612;2024-02-28T18:02:13;7.10;99.90
33460;DHT22;19795;53.160;6.612;2024-02-28T18:04:39;7.20;99.90
33460;DHT22;19795;53.160;6.612;2024-02-28T18:07:04;7.00;99.90
33460;DHT22;19795;53.160;6.612;2024-02-28T18:09:30;7.00;99.90
33460;DHT22;19795;53.160;6.612;2024-02-28T18:11:59;7.00;99.90
33460;DHT22;19795;53.160;6.612;2024-02-28T18:14:27;6.90;99.90
33460;DHT22;19795;53.160;6.612;2024-02-28T18:16:53;6.90;99.90
33460;DHT22;19795;53.160;6.612;2024-02-28T18:19:19;6.90;99.90
33460;DHT22;19795;53.160;6.612;2024-02-28T18:21:46;6.90;99.90
33460;DHT22;19795;53.160;6.612;2024-02-28T18:24:12;6.80;99.90
33460;DHT22;19795;53.160;6.612;2024-02-28T18:26:37;6.80;99.90
33460;DHT22;19795;53.160;6.612;2024-02-28T18:29:03;6.70;99.90
33460;DHT22;19795;53.160;6.612;2024-02-28T18:31:29;6.60;99.90
33460;DHT22;19795;53.160;6.612;2024-02-28T18:33:54;6.70;99.90
33460;DHT22;19795;53.160;6.612;2024-02-28T18:36:20;6.70;99.90
33460;DHT22;19795;53.160;6.612;2024-02-28T18:38:48;6.70;99.90
33460;DHT22;19795;53.160;6.612;2024-02-28T18:41:13;6.70;99.90
33460;DHT22;19795;53.160;6.612;2024-02-28T18:43:39;6.70;99.90
33460;DHT22;19795;53.160;6.612;2024-02-28T18:46:05;6.60;99.90
33460;DHT22;19795;53.160;6.612;2024-02-28T18:48:31;6.60;99.90
33460;DHT22;19795;53.160;6.612;2024-02-28T18:50:58;6.60;99.90
33460;DHT22;19795;53.160;6.612;2024-02-28T18:53:25;6.60;99.90
33460;DHT22;19795;53.160;6.612;2024-02-28T18:55:51;6.60;99.90
33460;DHT22;19795;53.160;6.612;2024-02-28T18:58:16;6.60;99.90
33460;DHT22;19795;53.160;6.612;2024-02-28T19:00:42;6.50;99.90
33460;DHT22;19795;53.160;6.612;2024-02-28T19:03:12;6.50;99.90
33460;DHT22;19795;53.160;6.612;2024-02-28T19:05:39;6.50;99.90
33460;DHT22;19795;53.160;6.612;2024-02-28T19:08:05;6.50;99.90
33460;DHT22;19795;53.160;6.612;2024-02-28T19:10:34;6.50;99.90
33460;DHT22;19795;53.160;6.612;2024-02-28T19:13:03;6.50;99.90
33460;DHT22;19795;53.160;6.612;2024-02-28T19:15:29;6.50;99.90
33460;DHT22;19795;53.160;6.612;2024-02-28T19:17:54;6.50;99.90
33460;DHT22;19795;53.160;6.612;2024-02-28T19:20:20;6.50;99.90
33460;DHT22;19795;53.160;6.612;2024-02-28T19:22:46;6.50;99.90
33460;DHT22;19795;53.160;6.612;2024-02-28T19:25:12;6.60;99.90
33460;DHT22;19795;53.160;6.612;2024-02-28T19:27:38;6.60;99.90
33460;DHT22;19795;53.160;6.612;2024-02-28T19:30:04;6.60;99.90
33460;DHT22;19795;53.160;6.612;2024-02-28T19:32:31;6.60;99.90
33460;DHT22;19795;53.160;6.612;2024-02-28T19:34:56;6.60;99.90
33460;DHT22;19795;53.160;6.612;2024-02-28T19:37:22;6.50;99.90
33460;DHT22;19795;53.160;6.612;2024-02-28T19:39:48;6.60;99.90
33460;DHT22;19795;53.160;6.612;2024-02-28T19:42:23;6.60;99.90
33460;DHT22;19795;53.160;6.612;2024-02-28T19:44:49;6.60;99.90
33460;DHT22;19795;53.160;6.612;2024-02-28T19:47:14;6.60;99.90
33460;DHT22;19795;53.160;6.612;2024-02-28T19:49:41;6.60;99.90
33460;DHT22;19795;53.160;6.612;2024-02-28T19:52:07;6.60;99.90
33460;DHT22;19795;53.160;6.612;2024-02-28T19:54:32;6.70;99.90
33460;DHT22;19795;53.160;6.612;2024-02-28T19:56:58;6.60;99.90
33460;DHT22;19795;53.160;6.612;2024-02-28T19:59:24;6.70;99.90
33460;DHT22;19795;53.160;6.612;2024-02-28T20:01:50;6.70;99.90
33460;DHT22;19795;53.160;6.612;2024-02-28T20:04:15;6.70;99.90
33460;DHT22;19795;53.160;6.612;2024-02-28T20:06:41;6.80;99.90
33460;DHT22;19795;53.160;6.612;2024-02-28T20:09:08;6.80;99.90
33460;DHT22;19795;53.160;6.612;2024-02-28T20:11:34;7.00;99.90
33460;DHT22;19795;53.160;6.612;2024-02-28T20:13:59;6.80;99.90
33460;DHT22;19795;53.160;6.612;2024-02-28T20:16:25;6.80;99.90
33460;DHT22;19795;53.160;6.612;2024-02-28T20:18:51;6.80;99.90
33460;DHT22;19795;53.160;6.612;2024-02-28T20:21:17;6.80;99.90
33460;DHT22;19795;53.160;6.612;2024-02-28T20:23:42;6.70;99.90
33460;DHT22;19795;53.160;6.612;2024-02-28T20:26:08;6.70;99.90
33460;DHT22;19795;53.160;6.612;2024-02-28T20:28:34;6.70;99.90
33460;DHT22;19795;53.160;6.612;2024-02-28T20:31:00;6.90;99.90
33460;DHT22;19795;53.160;6.612;2024-02-28T20:33:26;7.00;99.90
33460;DHT22;19795;53.160;6.612;2024-02-28T20:35:51;6.70;99.90
33460;DHT22;19795;53.160;6.612;2024-02-28T20:38:20;6.80;99.90
33460;DHT22;19795;53.160;6.612;2024-02-28T20:40:49;6.80;99.90
33460;DHT22;19795;53.160;6.612;2024-02-28T20:43:15;6.90;99.90
33460;DHT22;19795;53.160;6.612;2024-02-28T20:45:41;6.80;99.90
33460;DHT22;19795;53.160;6.612;2024-02-28T20:48:10;6.80;99.90
33460;DHT22;19795;53.160;6.612;2024-02-28T20:50:36;6.90;99.90
33460;DHT22;19795;53.160;6.612;2024-02-28T20:53:01;6.90;99.90
33460;DHT22;19795;53.160;6.612;2024-02-28T20:55:31;6.80;99.90
33460;DHT22;19795;53.160;6.612;2024-02-28T20:57:57;6.70;99.90
33460;DHT22;19795;53.160;6.612;2024-02-28T21:00:26;6.90;99.90
33460;DHT22;19795;53.160;6.612;2024-02-28T21:02:52;7.30;99.90
33460;DHT22;19795;53.160;6.612;2024-02-28T21:05:18;7.00;99.90
33460;DHT22;19795;53.160;6.612;2024-02-28T21:07:44;6.80;99.90
33460;DHT22;19795;53.160;6.612;2024-02-28T21:10:09;6.90;99.90
33460;DHT22;19795;53.160;6.612;2024-02-28T21:12:35;6.90;99.90
33460;DHT22;19795;53.160;6.612;2024-02-28T21:15:01;7.20;99.90
33460;DHT22;19795;53.160;6.612;2024-02-28T21:17:32;6.90;99.90
33460;DHT22;19795;53.160;6.612;2024-02-28T21:19:58;7.00;99.90
33460;DHT22;19795;53.160;6.612;2024-02-28T21:22:24;7.00;99.90
33460;DHT22;19795;53.160;6.612;2024-02-28T21:24:49;7.10;99.90
33460;DHT22;19795;53.160;6.612;2024-02-28T21:27:15;7.00;99.90
33460;DHT22;19795;53.160;6.612;2024-02-28T21:29:41;7.00;99.90
33460;DHT22;19795;53.160;6.612;2024-02-28T21:32:07;7.10;99.90
33460;DHT22;19795;53.160;6.612;2024-02-28T21:34:32;7.00;99.90
33460;DHT22;19795;53.160;6.612;2024-02-28T21:36:58;7.00;99.90
33460;DHT22;19795;53.160;6.612;2024-02-28T21:39:23;7.00;99.90
33460;DHT22;19795;53.160;6.612;2024-02-28T21:41:50;7.00;99.90
33460;DHT22;19795;53.160;6.612;2024-02-28T21:44:16;7.10;99.90
33460;DHT22;19795;53.160;6.612;2024-02-28T21:46:42;7.10;99.90